Luxemburg, Wisconsin
Current Conditions -  °F | °C
As of 12:53 AM on Saturday 25 Oct 2014 (Local Time) from KGRB Reporting Station
Haze Haze  
Wind Chill: 52°   Ceiling: Unl
Heat Index: 52°   Visibility: 6mi
Dew Point: 50°   Wind: 5mph
Humidity: 93%   Direction: 240°WSW
Pressure: 29.82"   Gusts: NA
Location:  44.54°N, 87.7°W
Report Text: KGRB 250553Z AUTO 24004KT 6SM BR CLR 11/10 A2982 RMK AO2 SLP099 T01110100 10128 20100 401280089 56010
Loading
Personal Weather Stations






























Interactive Weather Map
Tropical Storm Tracking
New forecast layout! Learn more

10-Day Weather Forecast

Advertisements
Track Severe Weather on mobile